Time;durP1;ratioP1;P1;durP2;ratioP2;P2;SDS_P1;SDS_P2;PMS_P1;PMS_P2;Temp;Humidity;BMP_temperature;BMP_pressure;BME280_temperature;BME280_humidity;BME280_pressure;Samples;Min_cycle;Max_cycle;Signal;HPM_P1;HPM_P2
2023/08/04 00:00:17;;;;;;;6.25;1.00;;;14.20;99.90;;;;;;5004481;28;20037;-83
2023/08/04 00:02:43;;;;;;;5.55;1.42;;;14.20;99.90;;;;;;5008899;28;20149;-89
2023/08/04 00:05:09;;;;;;;4.97;1.25;;;14.20;99.90;;;;;;5017645;28;20109;-87
2023/08/04 00:07:35;;;;;;;7.88;1.17;;;14.20;99.90;;;;;;5014834;28;20120;-89
2023/08/04 00:10:05;;;;;;;6.70;1.00;;;14.20;99.90;;;;;;5007585;28;20121;-88
2023/08/04 00:12:31;;;;;;;4.40;0.70;;;14.20;99.90;;;;;;5026350;28;20060;-86
2023/08/04 00:14:57;;;;;;;3.83;0.63;;;14.20;99.90;;;;;;5015830;28;20560;-90
2023/08/04 00:17:22;;;;;;;3.60;0.60;;;14.10;99.90;;;;;;5008559;28;20033;-86
2023/08/04 00:19:48;;;;;;;4.60;0.60;;;14.10;99.90;;;;;;5007738;28;20038;-91
2023/08/04 00:22:13;;;;;;;2.45;0.50;;;14.10;99.90;;;;;;4991353;28;20083;-89
2023/08/04 00:24:39;;;;;;;2.33;0.50;;;14.00;99.90;;;;;;5008722;28;20044;-89
2023/08/04 00:27:05;;;;;;;2.85;0.40;;;14.00;99.90;;;;;;5007499;28;20173;-88
2023/08/04 00:29:31;;;;;;;1.60;0.47;;;14.00;99.90;;;;;;5007099;28;20120;-89
2023/08/04 00:31:56;;;;;;;1.63;0.40;;;14.00;99.90;;;;;;4993731;28;20041;-90
2023/08/04 00:34:23;;;;;;;3.20;0.63;;;14.00;99.90;;;;;;5011256;28;20659;-89
2023/08/04 00:36:48;;;;;;;2.40;0.40;;;14.00;99.90;;;;;;5003192;28;20112;-89
2023/08/04 00:39:15;;;;;;;1.88;0.60;;;13.90;99.90;;;;;;5025404;28;20521;-90
2023/08/04 00:41:41;;;;;;;1.88;0.50;;;13.90;99.90;;;;;;5005366;28;20080;-90
2023/08/04 00:44:07;;;;;;;1.30;0.40;;;13.90;99.90;;;;;;5011178;28;20022;-89
2023/08/04 00:46:34;;;;;;;3.25;0.47;;;13.90;99.90;;;;;;5028209;28;20064;-87
2023/08/04 00:49:01;;;;;;;2.47;0.45;;;13.90;99.90;;;;;;5005393;28;20076;-90
2023/08/04 00:51:27;;;;;;;1.27;0.40;;;14.00;99.90;;;;;;5024486;28;20045;-87
2023/08/04 00:53:53;;;;;;;2.35;0.52;;;14.00;99.90;;;;;;5019982;28;20031;-89
2023/08/04 00:56:20;;;;;;;3.92;0.65;;;14.10;99.90;;;;;;5006524;28;20039;-91
2023/08/04 00:58:45;;;;;;;2.00;0.57;;;14.10;99.90;;;;;;5008204;28;20108;-89
2023/08/04 01:01:13;;;;;;;5.45;0.52;;;14.20;99.90;;;;;;4994277;28;20057;-90
2023/08/04 01:03:40;;;;;;;2.13;0.50;;;14.20;99.90;;;;;;4993225;28;20520;-87
2023/08/04 01:06:25;;;;;;;2.13;0.50;;;14.20;99.90;;;;;;5021715;28;20037;-88
2023/08/04 01:09:09;;;;;;;2.10;0.40;;;14.20;99.90;;;;;;5005079;28;20030;-89
2023/08/04 01:11:42;;;;;;;2.50;0.70;;;14.30;99.90;;;;;;5003089;28;20039;-88
2023/08/04 01:14:10;;;;;;;3.22;0.90;;;14.30;99.90;;;;;;5005962;28;20068;-87
2023/08/04 01:16:36;;;;;;;6.38;0.85;;;14.40;99.90;;;;;;4989672;28;20053;-87
2023/08/04 01:19:02;;;;;;;5.95;0.82;;;14.40;99.90;;;;;;5006229;28;20060;-83
2023/08/04 01:21:38;;;;;;;2.40;0.60;;;14.30;99.90;;;;;;5007307;28;20084;-87
2023/08/04 01:24:03;;;;;;;2.53;0.55;;;14.30;99.90;;;;;;4993664;28;20494;-87
2023/08/04 01:26:29;;;;;;;4.70;1.05;;;14.30;99.90;;;;;;5025808;28;20049;-87
2023/08/04 01:28:55;;;;;;;3.83;0.90;;;14.20;99.90;;;;;;5024727;28;20022;-86
2023/08/04 01:31:21;;;;;;;4.65;0.75;;;14.20;99.90;;;;;;5025516;28;20469;-88
2023/08/04 01:33:48;;;;;;;4.70;1.00;;;14.20;99.90;;;;;;4991704;28;20034;-88
2023/08/04 01:36:14;;;;;;;1.55;0.60;;;14.20;99.90;;;;;;4990663;28;20431;-84
2023/08/04 01:38:39;;;;;;;3.33;0.50;;;14.20;99.90;;;;;;5022898;28;20025;-87
2023/08/04 01:41:05;;;;;;;4.55;0.98;;;14.30;99.90;;;;;;5009657;28;20030;-87
2023/08/04 01:43:31;;;;;;;4.90;0.70;;;14.30;99.90;;;;;;4991581;28;20025;-87
2023/08/04 01:45:58;;;;;;;3.33;1.00;;;14.30;99.90;;;;;;5007201;28;20065;-87
2023/08/04 01:48:24;;;;;;;5.20;0.90;;;14.40;99.90;;;;;;4989751;28;20451;-89
2023/08/04 01:50:49;;;;;;;4.28;0.93;;;14.40;99.90;;;;;;5005538;28;20096;-87
2023/08/04 01:53:15;;;;;;;3.85;0.70;;;14.40;99.90;;;;;;4993597;28;20493;-87
2023/08/04 01:55:41;;;;;;;4.93;1.02;;;14.40;99.90;;;;;;5026296;28;20025;-83
2023/08/04 01:58:06;;;;;;;6.18;1.20;;;14.40;99.90;;;;;;4993306;28;20428;-87
2023/08/04 02:00:32;;;;;;;6.65;1.10;;;14.50;99.90;;;;;;5007543;28;20030;-87
2023/08/04 02:02:58;;;;;;;4.68;1.42;;;14.40;99.90;;;;;;5028143;28;20057;-86
2023/08/04 02:05:23;;;;;;;6.22;1.88;;;14.50;99.90;;;;;;5013769;28;20052;-87
2023/08/04 02:07:49;;;;;;;5.57;1.48;;;14.50;99.90;;;;;;5027359;28;20041;-87
2023/08/04 02:10:15;;;;;;;6.63;1.20;;;14.60;99.90;;;;;;4994509;28;20040;-88
2023/08/04 02:12:42;;;;;;;8.63;1.52;;;14.50;99.90;;;;;;5011232;28;20389;-84
2023/08/04 02:15:08;;;;;;;7.13;1.38;;;14.60;99.90;;;;;;5014304;28;20029;-88
2023/08/04 02:17:35;;;;;;;4.13;1.08;;;14.60;99.90;;;;;;4992423;28;20393;-88
2023/08/04 02:20:00;;;;;;;5.25;0.90;;;14.50;99.90;;;;;;4997832;28;20025;-86
2023/08/04 02:22:26;;;;;;;7.68;1.33;;;14.50;99.90;;;;;;5019301;28;20461;-87
2023/08/04 02:24:51;;;;;;;10.10;2.05;;;14.50;99.90;;;;;;5008867;28;20034;-85
2023/08/04 02:27:17;;;;;;;11.75;1.58;;;14.50;99.90;;;;;;4993906;28;20076;-84
2023/08/04 02:29:43;;;;;;;7.75;1.85;;;14.50;99.90;;;;;;4995542;28;20041;-84
2023/08/04 02:32:10;;;;;;;10.23;1.58;;;14.50;99.90;;;;;;5012588;28;20022;-87
2023/08/04 02:34:36;;;;;;;7.72;1.27;;;14.50;99.90;;;;;;4997583;28;20053;-87
2023/08/04 02:37:02;;;;;;;5.50;1.25;;;14.50;99.90;;;;;;5028656;28;20446;-90
2023/08/04 02:39:28;;;;;;;6.32;1.75;;;14.40;99.90;;;;;;4995879;28;20538;-88
2023/08/04 02:41:53;;;;;;;7.97;1.75;;;14.40;99.90;;;;;;4995699;28;20033;-88
2023/08/04 02:44:19;;;;;;;5.15;1.65;;;14.50;99.90;;;;;;5027299;28;20017;-88
2023/08/04 02:46:45;;;;;;;7.47;1.33;;;14.50;99.90;;;;;;4992198;28;20116;-88
2023/08/04 02:49:11;;;;;;;4.32;1.13;;;14.50;99.90;;;;;;5011516;28;20021;-88
2023/08/04 02:51:37;;;;;;;4.20;1.75;;;14.50;99.90;;;;;;5028351;28;20051;-89
2023/08/04 02:54:03;;;;;;;4.15;0.90;;;14.50;99.90;;;;;;5017731;28;20271;-87
2023/08/04 02:56:28;;;;;;;5.10;1.30;;;14.50;99.90;;;;;;4992858;28;20293;-88
2023/08/04 02:58:54;;;;;;;5.32;1.52;;;14.50;99.90;;;;;;5010535;28;20149;-86
2023/08/04 03:01:20;;;;;;;3.22;1.00;;;14.50;99.90;;;;;;5006111;28;20037;-89
2023/08/04 03:03:45;;;;;;;6.38;0.85;;;14.50;99.90;;;;;;4999322;28;20124;-89
2023/08/04 03:06:11;;;;;;;9.77;1.90;;;14.50;99.90;;;;;;5017487;28;20583;-90
2023/08/04 03:08:37;;;;;;;4.32;0.95;;;14.50;99.90;;;;;;4990936;28;20037;-88
2023/08/04 03:11:09;;;;;;;4.55;1.33;;;14.50;99.90;;;;;;5018588;28;20045;-88
2023/08/04 03:13:34;;;;;;;7.28;1.83;;;14.50;99.90;;;;;;5025714;28;20029;-88
2023/08/04 03:16:01;;;;;;;6.03;2.28;;;14.50;99.90;;;;;;5003952;28;20030;-87
2023/08/04 03:18:27;;;;;;;8.20;2.55;;;14.50;99.90;;;;;;5017419;28;20502;-88
2023/08/04 03:20:53;;;;;;;11.73;3.13;;;14.50;99.90;;;;;;5027083;28;20184;-88
2023/08/04 03:23:19;;;;;;;8.10;2.40;;;14.50;99.90;;;;;;5026841;28;20110;-83
2023/08/04 03:25:45;;;;;;;8.38;1.98;;;14.50;99.90;;;;;;4991731;28;20034;-88
2023/08/04 03:28:11;;;;;;;3.88;1.63;;;14.50;99.90;;;;;;5009605;28;20488;-86
2023/08/04 03:30:37;;;;;;;7.57;2.00;;;14.50;99.90;;;;;;5009411;28;20120;-87
2023/08/04 03:33:02;;;;;;;9.60;2.55;;;14.50;99.90;;;;;;5024811;28;20128;-82
2023/08/04 03:35:28;;;;;;;5.50;2.03;;;14.50;99.90;;;;;;5012257;28;20033;-89
2023/08/04 03:37:54;;;;;;;13.23;3.38;;;14.50;99.90;;;;;;4991872;28;20029;-86
2023/08/04 03:40:20;;;;;;;7.03;2.33;;;14.50;99.90;;;;;;5008526;28;20029;-88
2023/08/04 03:42:46;;;;;;;7.68;2.58;;;14.50;99.90;;;;;;5011639;28;20030;-88
2023/08/04 03:45:11;;;;;;;11.73;3.80;;;14.50;99.90;;;;;;5006550;28;20026;-87
2023/08/04 03:47:37;;;;;;;8.48;2.47;;;14.40;99.90;;;;;;5007674;28;20025;-88
2023/08/04 03:50:04;;;;;;;6.82;2.35;;;14.50;99.90;;;;;;5007560;28;20041;-87
2023/08/04 03:52:30;;;;;;;10.13;3.58;;;14.40;99.90;;;;;;5026210;28;20504;-84
2023/08/04 03:54:55;;;;;;;7.82;2.95;;;14.50;99.90;;;;;;5028317;28;20021;-87
2023/08/04 03:57:21;;;;;;;7.22;3.30;;;14.50;99.90;;;;;;5026135;28;20025;-87
2023/08/04 03:59:48;;;;;;;7.93;2.80;;;14.50;99.90;;;;;;4991148;28;20033;-86
2023/08/04 04:02:14;;;;;;;6.45;3.38;;;14.50;99.90;;;;;;5008095;28;20033;-87
2023/08/04 04:04:40;;;;;;;5.45;2.45;;;14.50;99.90;;;;;;5006107;28;20062;-88
2023/08/04 04:07:05;;;;;;;5.60;2.45;;;14.40;99.90;;;;;;5007520;28;20040;-87
2023/08/04 04:09:33;;;;;;;5.65;2.72;;;14.50;99.90;;;;;;5006003;28;20037;-90
2023/08/04 04:11:58;;;;;;;9.65;3.28;;;14.50;99.90;;;;;;5009568;28;20481;-88
2023/08/04 04:14:24;;;;;;;7.07;2.60;;;14.50;99.90;;;;;;5005973;28;20030;-86
2023/08/04 04:16:50;;;;;;;7.47;2.58;;;14.50;99.90;;;;;;5006369;28;20026;-88
2023/08/04 04:19:15;;;;;;;8.68;3.47;;;14.50;99.90;;;;;;5010857;28;20026;-86
2023/08/04 04:21:41;;;;;;;9.75;2.88;;;14.50;99.90;;;;;;5008893;28;20088;-88
2023/08/04 04:24:07;;;;;;;6.30;2.78;;;14.40;99.90;;;;;;5026478;28;20096;-89
2023/08/04 04:26:32;;;;;;;4.97;2.13;;;14.50;99.90;;;;;;5007307;28;20104;-87
2023/08/04 04:28:58;;;;;;;6.60;2.10;;;14.50;99.90;;;;;;4991424;28;20025;-88
2023/08/04 04:31:24;;;;;;;8.90;3.13;;;14.50;99.90;;;;;;5006775;28;20048;-81
2023/08/04 04:33:49;;;;;;;8.52;3.15;;;14.50;99.90;;;;;;5007122;28;20125;-88
2023/08/04 04:36:15;;;;;;;8.93;3.00;;;14.50;99.90;;;;;;5007186;28;20382;-89
2023/08/04 04:38:42;;;;;;;9.57;2.88;;;14.50;99.90;;;;;;5024229;28;20030;-88
2023/08/04 04:41:07;;;;;;;5.68;2.55;;;14.50;99.90;;;;;;4994751;28;20021;-87
2023/08/04 04:43:34;;;;;;;7.40;2.22;;;14.50;99.90;;;;;;5005952;28;20038;-90
2023/08/04 04:45:59;;;;;;;6.70;2.42;;;14.50;99.90;;;;;;5000103;28;20029;-88
2023/08/04 04:48:25;;;;;;;6.10;1.35;;;14.50;99.90;;;;;;5024350;28;20437;-89
2023/08/04 04:50:51;;;;;;;8.52;2.80;;;14.50;99.90;;;;;;5012806;28;20034;-88
2023/08/04 04:53:17;;;;;;;3.08;1.25;;;14.50;99.90;;;;;;5026278;28;20025;-87
2023/08/04 04:55:43;;;;;;;9.68;3.13;;;14.60;99.90;;;;;;4997624;28;20501;-85
2023/08/04 04:58:08;;;;;;;7.38;2.10;;;14.60;99.90;;;;;;5023919;28;20017;-82
2023/08/04 05:00:34;;;;;;;7.68;2.53;;;14.60;99.90;;;;;;5006822;28;20179;-88
2023/08/04 05:03:04;;;;;;;7.75;3.58;;;14.60;99.90;;;;;;5008418;28;20025;-88
2023/08/04 05:05:31;;;;;;;12.43;3.70;;;14.70;99.90;;;;;;5023331;28;20036;-87
2023/08/04 05:07:56;;;;;;;10.30;3.65;;;14.70;99.90;;;;;;5025120;28;20134;-83
2023/08/04 05:10:22;;;;;;;8.02;3.92;;;14.70;99.90;;;;;;5021599;28;20056;-88
2023/08/04 05:12:48;;;;;;;9.40;3.35;;;14.70;99.90;;;;;;5009437;28;20028;-87
2023/08/04 05:15:13;;;;;;;8.40;3.25;;;14.80;99.90;;;;;;5024367;28;20087;-87
2023/08/04 05:17:39;;;;;;;9.30;4.28;;;14.80;99.90;;;;;;5007844;28;20371;-87
2023/08/04 05:20:06;;;;;;;9.55;4.22;;;14.80;99.90;;;;;;4994556;28;20028;-87
2023/08/04 05:22:32;;;;;;;9.07;4.15;;;14.80;99.90;;;;;;4992980;28;20044;-82
2023/08/04 05:24:57;;;;;;;10.65;4.43;;;14.90;99.90;;;;;;4990924;28;20034;-88
2023/08/04 05:27:23;;;;;;;8.32;4.15;;;14.90;99.90;;;;;;4992546;28;20071;-83
2023/08/04 05:29:49;;;;;;;5.70;3.95;;;14.90;99.90;;;;;;5010427;28;20065;-89
2023/08/04 05:32:15;;;;;;;7.63;4.10;;;14.90;99.90;;;;;;5027053;28;20171;-87
2023/08/04 05:34:41;;;;;;;10.00;5.70;;;15.00;99.90;;;;;;5010347;28;20029;-88
2023/08/04 05:37:06;;;;;;;11.38;5.18;;;15.00;99.90;;;;;;5030427;28;20491;-89
2023/08/04 05:39:33;;;;;;;8.38;4.10;;;15.10;99.90;;;;;;5009942;28;20051;-86
2023/08/04 05:41:58;;;;;;;8.73;3.42;;;15.10;99.90;;;;;;5013539;28;20108;-87
2023/08/04 05:44:24;;;;;;;7.32;2.97;;;15.30;99.90;;;;;;5013501;28;20037;-87
2023/08/04 05:46:50;;;;;;;6.63;3.17;;;15.30;99.90;;;;;;5027766;28;20022;-88
2023/08/04 05:49:15;;;;;;;5.43;2.60;;;15.20;99.90;;;;;;5018076;28;20374;-85
2023/08/04 05:51:41;;;;;;;5.85;2.47;;;15.20;99.90;;;;;;5027700;28;20551;-84
2023/08/04 05:54:07;;;;;;;4.22;1.55;;;15.20;99.90;;;;;;5011712;28;20060;-83
2023/08/04 05:56:32;;;;;;;6.47;2.92;;;15.30;99.90;;;;;;5009907;28;20022;-88
2023/08/04 05:58:58;;;;;;;5.10;2.10;;;15.30;99.90;;;;;;5025782;28;20037;-88
2023/08/04 06:01:26;;;;;;;7.00;2.45;;;15.40;99.90;;;;;;4992155;28;20034;-87
2023/08/04 06:03:51;;;;;;;9.07;3.70;;;15.40;99.90;;;;;;5011739;28;20046;-88
2023/08/04 06:06:17;;;;;;;5.18;2.55;;;15.30;99.90;;;;;;5024794;28;20485;-83
2023/08/04 06:08:43;;;;;;;5.95;3.40;;;15.50;99.90;;;;;;5015020;28;20048;-81
2023/08/04 06:11:09;;;;;;;5.78;2.25;;;15.60;99.90;;;;;;5019164;28;20033;-84
2023/08/04 06:13:36;;;;;;;5.25;2.33;;;15.70;99.90;;;;;;5018783;28;20377;-87
2023/08/04 06:16:02;;;;;;;4.63;2.20;;;15.70;99.90;;;;;;5001777;28;20064;-81
2023/08/04 06:18:27;;;;;;;6.88;3.10;;;15.90;99.90;;;;;;5009937;28;20413;-82
2023/08/04 06:20:53;;;;;;;5.13;2.50;;;15.80;99.90;;;;;;5016653;28;20030;-86
2023/08/04 06:23:19;;;;;;;9.60;2.83;;;15.80;99.90;;;;;;5018689;28;20026;-86
2023/08/04 06:25:44;;;;;;;7.18;2.35;;;16.00;99.90;;;;;;5020432;28;20033;-86
2023/08/04 06:28:10;;;;;;;4.68;1.45;;;16.10;99.90;;;;;;5022094;28;20030;-85
2023/08/04 06:30:36;;;;;;;4.82;1.23;;;16.00;99.90;;;;;;5003836;28;20034;-86
2023/08/04 06:33:02;;;;;;;4.63;1.27;;;15.90;99.90;;;;;;5009847;28;20454;-85
2023/08/04 06:35:28;;;;;;;4.50;1.13;;;15.80;99.90;;;;;;4990087;28;20141;-86
2023/08/04 06:37:53;;;;;;;4.15;0.88;;;15.90;99.90;;;;;;5009493;28;20041;-86
2023/08/04 06:40:19;;;;;;;2.97;1.05;;;15.80;99.90;;;;;;5015579;28;20117;-85
2023/08/04 06:42:45;;;;;;;2.88;0.93;;;15.90;99.90;;;;;;5003864;28;20065;-83
2023/08/04 06:45:11;;;;;;;4.13;0.80;;;15.90;99.90;;;;;;5020712;28;20037;-85
2023/08/04 06:47:37;;;;;;;3.42;1.05;;;15.90;99.90;;;;;;5020605;28;20054;-86
2023/08/04 06:50:03;;;;;;;6.22;1.17;;;16.00;99.90;;;;;;5015285;28;20114;-87
2023/08/04 06:52:30;;;;;;;4.82;1.55;;;16.00;99.90;;;;;;5018873;28;20221;-86
2023/08/04 06:54:56;;;;;;;4.63;1.00;;;15.90;99.90;;;;;;5021403;28;20544;-86
2023/08/04 06:57:22;;;;;;;3.42;1.23;;;16.10;99.90;;;;;;5001987;28;20108;-87
2023/08/04 06:59:48;;;;;;;4.53;0.80;;;16.20;99.90;;;;;;5019570;28;20021;-87
2023/08/04 07:02:13;;;;;;;2.90;0.90;;;16.20;99.90;;;;;;5018923;28;20022;-88
2023/08/04 07:04:39;;;;;;;4.65;1.20;;;16.40;99.90;;;;;;5019493;28;20037;-84
2023/08/04 07:07:05;;;;;;;5.53;1.67;;;16.40;99.90;;;;;;5019119;28;20026;-86
2023/08/04 07:09:30;;;;;;;3.85;1.38;;;16.50;99.90;;;;;;4998097;28;20049;-82
2023/08/04 07:11:56;;;;;;;4.43;1.50;;;16.50;99.90;;;;;;5017209;28;20041;-88
2023/08/04 07:14:22;;;;;;;4.55;1.20;;;16.50;99.90;;;;;;5014065;28;20053;-88
2023/08/04 07:16:48;;;;;;;3.95;1.20;;;16.70;99.90;;;;;;5018325;28;20120;-88
2023/08/04 07:19:14;;;;;;;7.75;1.40;;;16.70;99.90;;;;;;4985286;28;20485;-86
2023/08/04 07:21:40;;;;;;;6.55;1.10;;;16.80;99.90;;;;;;5001605;28;20030;-85
2023/08/04 07:24:06;;;;;;;3.83;1.40;;;16.80;99.90;;;;;;5002040;28;20354;-88
2023/08/04 07:26:32;;;;;;;3.40;1.20;;;16.90;99.90;;;;;;5018526;28;20112;-88
2023/08/04 07:28:58;;;;;;;6.05;1.20;;;16.90;99.90;;;;;;5017370;28;20021;-89
2023/08/04 07:31:23;;;;;;;7.20;1.52;;;17.10;99.90;;;;;;5017125;28;20130;-85
2023/08/04 07:33:49;;;;;;;4.13;1.00;;;17.20;99.90;;;;;;5020273;28;20041;-84
2023/08/04 07:36:15;;;;;;;6.55;1.73;;;17.40;99.90;;;;;;4983944;28;20056;-86
2023/08/04 07:38:41;;;;;;;4.78;1.30;;;17.20;99.90;;;;;;5017907;28;20029;-86
2023/08/04 07:41:07;;;;;;;5.40;1.33;;;17.40;99.90;;;;;;5020244;28;20040;-83
2023/08/04 07:43:32;;;;;;;4.68;1.05;;;17.30;99.90;;;;;;5019750;28;20436;-86
2023/08/04 07:45:58;;;;;;;7.20;1.58;;;17.40;99.90;;;;;;5019370;28;20114;-85
2023/08/04 07:48:24;;;;;;;2.60;0.80;;;17.30;99.90;;;;;;5014786;28;20493;-85
2023/08/04 07:50:51;;;;;;;6.15;1.45;;;17.30;99.90;;;;;;5016878;28;20091;-84
2023/08/04 07:53:17;;;;;;;3.20;0.95;;;17.60;99.90;;;;;;5017364;28;20535;-82
2023/08/04 07:55:54;;;;;;;3.85;1.35;;;17.70;99.90;;;;;;5019318;28;20521;-84
2023/08/04 07:58:20;;;;;;;5.88;1.33;;;17.80;99.90;;;;;;5000699;28;20049;-88
2023/08/04 08:00:45;;;;;;;6.03;1.45;;;17.80;99.90;;;;;;5018172;28;20060;-87
2023/08/04 08:03:11;;;;;;;6.05;1.10;;;17.60;99.90;;;;;;4998110;28;20064;-85
2023/08/04 08:05:36;;;;;;;3.65;1.10;;;17.70;99.90;;;;;;5005916;28;20569;-83
2023/08/04 08:08:02;;;;;;;3.70;0.98;;;17.60;99.90;;;;;;5017859;28;20610;-85
2023/08/04 08:10:28;;;;;;;5.53;1.23;;;17.50;99.90;;;;;;4998067;28;20368;-84
2023/08/04 08:12:54;;;;;;;3.60;0.90;;;17.50;99.90;;;;;;5018462;28;20452;-87
2023/08/04 08:15:19;;;;;;;1.83;0.80;;;17.50;99.90;;;;;;5017279;28;20578;-87
2023/08/04 08:17:45;;;;;;;4.15;0.80;;;17.60;99.90;;;;;;5017889;28;20025;-84
2023/08/04 08:20:11;;;;;;;4.03;0.55;;;17.70;99.90;;;;;;5014944;28;20265;-86
2023/08/04 08:22:37;;;;;;;5.97;0.90;;;17.90;99.90;;;;;;5015177;28;20024;-83
2023/08/04 08:25:03;;;;;;;1.88;0.50;;;18.00;99.90;;;;;;5018787;28;20033;-85
2023/08/04 08:27:28;;;;;;;2.13;0.75;;;18.50;99.90;;;;;;4999548;28;20453;-83
2023/08/04 08:29:55;;;;;;;2.65;0.80;;;18.60;99.90;;;;;;5019426;28;20470;-86
2023/08/04 08:32:21;;;;;;;5.45;1.02;;;18.60;99.90;;;;;;5006268;28;20411;-85
2023/08/04 08:34:47;;;;;;;2.42;0.90;;;19.00;99.90;;;;;;5004040;28;20393;-85
2023/08/04 08:37:13;;;;;;;5.28;0.85;;;18.90;99.90;;;;;;5018046;28;20076;-85
2023/08/04 08:39:38;;;;;;;2.17;0.60;;;18.60;99.90;;;;;;4997963;28;20034;-86
2023/08/04 08:42:04;;;;;;;2.97;0.85;;;18.60;99.90;;;;;;5016402;28;20038;-86
2023/08/04 08:44:30;;;;;;;3.35;0.80;;;19.00;99.90;;;;;;5016272;28;20041;-88
2023/08/04 08:46:56;;;;;;;6.60;0.70;;;18.80;99.90;;;;;;5016994;28;20033;-83
2023/08/04 08:49:27;;;;;;;3.13;0.50;;;18.10;99.90;;;;;;5016177;28;20079;-87
2023/08/04 08:51:56;;;;;;;2.13;0.60;;;17.90;99.90;;;;;;5019867;28;20061;-81
2023/08/04 08:54:22;;;;;;;3.38;0.52;;;17.70;99.90;;;;;;5017877;28;20049;-86
2023/08/04 08:56:50;;;;;;;2.58;0.47;;;17.70;99.90;;;;;;4997978;28;20045;-85
2023/08/04 08:59:17;;;;;;;2.40;0.50;;;17.80;99.90;;;;;;5017061;28;20037;-85
2023/08/04 09:01:43;;;;;;;1.85;0.40;;;17.80;99.90;;;;;;5017565;28;20030;-86
2023/08/04 09:04:08;;;;;;;1.48;0.35;;;18.10;99.90;;;;;;5015619;28;20112;-81
2023/08/04 09:06:34;;;;;;;2.28;0.40;;;18.30;99.90;;;;;;5018500;28;20060;-85
2023/08/04 09:09:01;;;;;;;2.17;0.43;;;18.20;99.90;;;;;;5019866;28;20044;-84
2023/08/04 09:11:30;;;;;;;1.60;0.40;;;18.20;99.90;;;;;;4983748;28;20046;-85
2023/08/04 09:13:56;;;;;;;1.17;0.40;;;18.20;99.90;;;;;;5018047;28;20079;-84
2023/08/04 09:16:36;;;;;;;1.58;0.40;;;18.10;99.90;;;;;;5015224;28;20030;-86
2023/08/04 09:19:04;;;;;;;;;;;18.10;99.90;;;;;;5016748;28;20080;-86
2023/08/04 09:21:30;;;;;;;0.85;0.30;;;18.20;99.90;;;;;;5016167;28;19920;-87
2023/08/04 09:23:56;;;;;;;6.30;0.50;;;18.70;99.90;;;;;;5000418;28;20588;-85
2023/08/04 09:26:22;;;;;;;3.33;0.80;;;19.50;99.90;;;;;;5020324;28;20029;-85
2023/08/04 09:29:04;;;;;;;1.23;0.40;;;19.50;99.90;;;;;;5019860;28;20064;-83
2023/08/04 09:31:41;;;;;;;3.47;0.30;;;19.40;99.90;;;;;;4997739;28;20064;-87
2023/08/04 09:34:08;;;;;;;1.60;0.30;;;19.20;99.90;;;;;;5016029;28;20091;-86
2023/08/04 09:36:45;;;;;;;1.15;0.22;;;18.80;99.90;;;;;;5015543;28;20041;-85
2023/08/04 09:39:12;;;;;;;2.85;0.35;;;19.00;99.90;;;;;;5016638;28;21035;-84
2023/08/04 09:41:41;;;;;;;0.80;0.30;;;19.40;99.90;;;;;;4984170;28;20034;-82
2023/08/04 09:44:07;;;;;;;1.20;0.20;;;19.20;99.90;;;;;;5018513;28;20758;-89
2023/08/04 09:47:00;;;;;;;0.57;0.10;;;19.80;99.90;;;;;;4989102;28;20041;-88
2023/08/04 09:49:27;;;;;;;0.50;0.20;;;19.90;99.90;;;;;;4980807;28;20044;-88
2023/08/04 09:51:56;;;;;;;1.90;0.30;;;19.80;99.90;;;;;;5000443;28;20052;-87
2023/08/04 09:54:22;;;;;;;0.82;0.20;;;19.60;99.90;;;;;;5017436;28;20021;-85
2023/08/04 09:56:49;;;;;;;1.25;0.20;;;19.90;99.90;;;;;;5015875;28;20034;-87
2023/08/04 09:59:16;;;;;;;3.33;0.20;;;20.30;99.90;;;;;;4999608;28;20331;-87
2023/08/04 10:01:42;;;;;;;5.32;0.40;;;20.20;99.90;;;;;;4982604;28;20440;-88
2023/08/04 10:04:08;;;;;;;2.42;0.30;;;19.70;99.90;;;;;;5014222;28;20053;-83
2023/08/04 10:06:34;;;;;;;2.00;0.40;;;19.90;99.90;;;;;;5017634;28;20108;-86
2023/08/04 10:09:00;;;;;;;0.73;0.20;;;20.10;99.90;;;;;;4984312;28;20545;-86
2023/08/04 10:11:26;;;;;;;1.17;0.20;;;20.40;99.90;;;;;;5014560;28;20124;-86
2023/08/04 10:13:54;;;;;;;1.45;0.20;;;20.80;99.90;;;;;;5013225;28;20025;-87
2023/08/04 10:16:27;;;;;;;1.40;0.28;;;20.80;99.90;;;;;;5018197;28;20030;-87
2023/08/04 10:19:00;;;;;;;1.00;0.20;;;20.30;99.90;;;;;;5019985;28;20033;-85
2023/08/04 10:21:34;;;;;;;1.05;0.30;;;20.50;99.90;;;;;;5020266;28;20453;-88
2023/08/04 10:24:02;;;;;;;2.47;0.30;;;20.20;99.90;;;;;;5019939;28;20037;-86
2023/08/04 10:26:31;;;;;;;1.13;0.10;;;19.90;99.90;;;;;;5019168;28;20478;-86
2023/08/04 10:29:03;;;;;;;1.02;0.20;;;20.10;99.90;;;;;;5020739;28;20022;-86
2023/08/04 10:31:55;;;;;;;1.75;0.15;;;20.40;99.90;;;;;;5019506;28;20048;-87
2023/08/04 10:34:42;;;;;;;0.75;0.10;;;20.50;99.90;;;;;;4997792;28;20044;-86
2023/08/04 10:37:17;;;;;;;0.90;0.20;;;20.30;99.90;;;;;;5015284;28;20026;-87
2023/08/04 10:39:43;;;;;;;0.70;0.20;;;20.30;99.90;;;;;;5017589;28;20493;-84
2023/08/04 10:42:11;;;;;;;1.95;0.20;;;19.90;99.90;;;;;;5003653;28;20433;-83
2023/08/04 10:45:03;;;;;;;0.77;0.20;;;19.90;99.90;;;;;;5018746;28;20053;-83
2023/08/04 10:47:45;;;;;;;1.92;0.20;;;19.70;99.90;;;;;;5004605;28;20044;-86
2023/08/04 10:50:11;;;;;;;1.45;0.10;;;20.10;99.90;;;;;;5001088;28;20045;-86
2023/08/04 10:52:38;;;;;;;0.77;0.20;;;20.00;99.90;;;;;;5019242;28;20032;-87
2023/08/04 10:55:07;;;;;;;0.80;0.20;;;20.20;99.90;;;;;;5005894;28;20033;-84
2023/08/04 10:57:34;;;;;;;1.23;0.20;;;20.70;99.90;;;;;;5002740;28;20030;-85
2023/08/04 11:00:02;;;;;;;0.82;0.20;;;20.60;99.90;;;;;;5020095;28;20079;-83
2023/08/04 11:02:27;;;;;;;0.70;0.20;;;20.20;99.90;;;;;;4989306;28;20034;-86
2023/08/04 11:04:54;;;;;;;2.97;0.20;;;19.80;99.90;;;;;;5014147;28;20037;-83
2023/08/04 11:07:21;;;;;;;1.30;0.15;;;19.60;99.90;;;;;;5000005;28;20136;-88
2023/08/04 11:09:48;;;;;;;0.50;0.10;;;19.70;99.90;;;;;;4999435;28;20040;-86
2023/08/04 11:12:15;;;;;;;0.63;0.10;;;20.10;99.90;;;;;;5020568;28;20029;-85
2023/08/04 11:14:42;;;;;;;0.95;0.20;;;20.10;99.90;;;;;;5002865;28;20026;-87
2023/08/04 11:17:19;;;;;;;0.63;0.10;;;20.10;99.90;;;;;;5018315;28;20033;-85
2023/08/04 11:19:46;;;;;;;2.58;0.15;;;20.40;99.90;;;;;;5002118;28;20037;-85
2023/08/04 11:22:14;;;;;;;1.30;0.20;;;20.20;99.90;;;;;;5019019;28;20109;-84
2023/08/04 11:24:41;;;;;;;1.45;0.20;;;20.20;99.90;;;;;;5017813;28;20087;-86
2023/08/04 11:27:08;;;;;;;1.05;0.20;;;19.90;99.90;;;;;;5014833;28;20521;-86
2023/08/04 11:29:34;;;;;;;2.13;0.20;;;19.90;99.90;;;;;;5016791;28;20037;-84
2023/08/04 11:32:00;;;;;;;1.35;0.20;;;19.80;99.90;;;;;;5004371;28;20038;-85
2023/08/04 11:34:29;;;;;;;0.40;0.10;;;19.90;99.90;;;;;;5019873;28;20026;-86
2023/08/04 11:36:55;;;;;;;1.08;0.20;;;20.20;99.90;;;;;;5020016;28;20060;-85
2023/08/04 11:39:20;;;;;;;2.15;0.20;;;20.40;99.90;;;;;;5014435;28;20054;-84
2023/08/04 11:41:46;;;;;;;1.60;0.10;;;20.30;99.90;;;;;;5002994;28;20034;-86
2023/08/04 11:44:15;;;;;;;0.88;0.20;;;20.40;99.90;;;;;;5014920;28;20520;-84
2023/08/04 11:46:40;;;;;;;1.90;0.28;;;20.70;99.90;;;;;;5017375;28;20065;-87
2023/08/04 11:49:07;;;;;;;2.22;0.63;;;20.70;99.90;;;;;;5018236;28;20573;-85
2023/08/04 11:51:33;;;;;;;1.10;0.20;;;20.60;99.90;;;;;;5019700;28;20133;-86
2023/08/04 11:53:58;;;;;;;2.75;0.85;;;20.50;99.90;;;;;;5021302;28;20034;-86
2023/08/04 11:56:24;;;;;;;2.45;0.20;;;20.50;99.90;;;;;;5021069;28;20037;-86
2023/08/04 11:58:54;;;;;;;1.80;0.25;;;20.80;99.90;;;;;;5017499;28;20025;-84
2023/08/04 12:01:28;;;;;;;1.30;0.20;;;20.90;99.90;;;;;;5016289;28;20121;-89
2023/08/04 12:03:54;;;;;;;3.20;0.30;;;20.80;99.90;;;;;;4984197;28;20052;-84
2023/08/04 12:06:24;;;;;;;1.65;0.20;;;20.60;99.90;;;;;;5015623;28;20478;-85
2023/08/04 12:08:55;;;;;;;1.75;0.50;;;20.40;99.90;;;;;;5000797;28;20030;-84
2023/08/04 12:11:23;;;;;;;1.73;0.30;;;20.60;99.90;;;;;;5018014;28;20033;-86
2023/08/04 12:13:50;;;;;;;3.80;0.25;;;20.50;99.90;;;;;;5014429;28;20022;-86
2023/08/04 12:16:17;;;;;;;1.00;0.20;;;20.00;99.90;;;;;;5016861;28;20071;-86
2023/08/04 12:18:44;;;;;;;0.80;0.20;;;20.00;99.90;;;;;;5017437;28;20042;-85
2023/08/04 12:21:10;;;;;;;0.98;0.25;;;19.90;99.90;;;;;;5015291;28;20033;-88
2023/08/04 12:23:37;;;;;;;2.28;0.20;;;19.60;99.90;;;;;;5016396;28;20036;-86
2023/08/04 12:26:04;;;;;;;2.13;0.32;;;19.20;99.90;;;;;;5017468;28;20029;-83
2023/08/04 12:28:30;;;;;;;3.25;0.47;;;18.70;99.90;;;;;;5007128;28;20030;-92
2023/08/04 12:30:55;;;;;;;2.78;0.38;;;18.10;99.90;;;;;;5018669;28;20124;-87
2023/08/04 12:33:21;;;;;;;1.80;0.30;;;17.70;99.90;;;;;;5020412;28;20244;-86
2023/08/04 12:35:47;;;;;;;0.80;0.20;;;17.40;99.90;;;;;;5016560;28;20041;-84
2023/08/04 12:38:13;;;;;;;1.25;0.10;;;17.60;99.90;;;;;;5014165;28;20037;-89
2023/08/04 12:40:39;;;;;;;0.38;0.10;;;17.90;99.90;;;;;;5014701;28;20087;-90
2023/08/04 12:43:04;;;;;;;0.98;0.08;;;18.00;99.90;;;;;;5020155;28;20029;-91